createdAt,value
2019-04-23T00:00:26.499Z,14.60
2019-04-23T00:01:38.583Z,14.44
2019-04-23T00:02:30.111Z,14.41
2019-04-23T00:03:30.563Z,14.54
2019-04-23T00:04:24.006Z,14.43
2019-04-23T00:05:35.457Z,14.40
2019-04-23T00:06:53.857Z,14.51
2019-04-23T00:07:44.524Z,14.33
2019-04-23T00:08:37.735Z,14.47
2019-04-23T00:09:30.383Z,14.37
2019-04-23T00:10:30.299Z,14.36
2019-04-23T00:12:40.588Z,14.33
2019-04-23T00:13:29.326Z,14.30
2019-04-23T00:14:29.890Z,14.22
2019-04-23T00:15:23.372Z,14.29
2019-04-23T00:17:33.477Z,14.23
2019-04-23T00:19:26.169Z,14.14
2019-04-23T00:20:25.823Z,14.30
2019-04-23T00:21:26.641Z,14.10
2019-04-23T00:22:31.253Z,14.20
2019-04-23T00:23:28.190Z,14.12
2019-04-23T00:24:46.666Z,14.05
2019-04-23T00:26:33.230Z,14.07
2019-04-23T00:27:35.561Z,13.99
2019-04-23T00:28:37.402Z,13.96
2019-04-23T00:29:32.773Z,14.07
2019-04-23T00:30:41.454Z,13.96
2019-04-23T00:31:34.991Z,13.95
2019-04-23T00:32:30.268Z,13.93
2019-04-23T00:34:37.799Z,13.95
2019-04-23T00:35:25.867Z,13.85
2019-04-23T00:36:32.595Z,13.92
2019-04-23T00:38:33.645Z,13.95
2019-04-23T00:39:23.709Z,13.97
2019-04-23T00:40:25.921Z,13.95
2019-04-23T00:41:33.357Z,13.89
2019-04-23T00:42:29.598Z,13.81
2019-04-23T00:43:27.292Z,13.83
2019-04-23T00:44:37.721Z,13.87
2019-04-23T00:45:33.304Z,13.75
2019-04-23T00:46:31.486Z,13.77
2019-04-23T00:47:33.001Z,13.75
2019-04-23T00:48:36.401Z,13.71
2019-04-23T00:49:28.974Z,13.60
2019-04-23T00:50:30.267Z,13.70
2019-04-23T00:51:34.680Z,13.60
2019-04-23T00:52:26.441Z,13.68
2019-04-23T00:53:37.142Z,13.57
2019-04-23T00:54:28.819Z,13.68
2019-04-23T00:55:39.761Z,13.65
2019-04-23T00:57:34.297Z,13.54
2019-04-23T00:58:36.657Z,13.59
2019-04-23T00:59:28.224Z,13.54
2019-04-23T01:00:33.711Z,13.68
2019-04-23T01:01:31.942Z,13.52
2019-04-23T01:02:33.576Z,13.56
2019-04-23T01:03:21.557Z,13.54
2019-04-23T01:04:27.452Z,13.41
2019-04-23T01:06:23.654Z,13.38
2019-04-23T01:07:24.641Z,13.42
2019-04-23T01:08:27.926Z,13.38
2019-04-23T01:09:29.316Z,13.44
2019-04-23T01:10:29.168Z,13.37
2019-04-23T01:11:22.848Z,13.33
2019-04-23T01:12:31.735Z,13.35
2019-04-23T01:13:36.294Z,13.31
2019-04-23T01:14:31.590Z,13.27
2019-04-23T01:15:32.871Z,13.37
2019-04-23T01:16:22.915Z,13.22
2019-04-23T01:17:32.247Z,13.35
2019-04-23T01:19:31.577Z,13.27
2019-04-23T01:20:28.960Z,13.20
2019-04-23T01:21:05.734Z,13.15
2019-04-23T01:22:06.412Z,13.25
2019-04-23T01:23:05.596Z,13.20
2019-04-23T01:24:10.277Z,13.18
2019-04-23T01:25:13.422Z,13.19
2019-04-23T01:26:23.903Z,13.11
2019-04-23T01:28:35.554Z,13.13
2019-04-23T01:29:39.183Z,13.15
2019-04-23T01:30:31.592Z,13.15
2019-04-23T01:31:48.006Z,13.16
2019-04-23T01:32:31.446Z,13.13
2019-04-23T01:34:34.613Z,13.09
2019-04-23T01:35:50.996Z,13.18
2019-04-23T01:37:35.228Z,13.08
2019-04-23T01:38:35.099Z,13.13
2019-04-23T01:39:28.019Z,13.03
2019-04-23T01:40:31.904Z,13.01
2019-04-23T01:41:33.692Z,13.00
2019-04-23T01:42:35.705Z,13.01
2019-04-23T01:43:35.074Z,13.11
2019-04-23T01:44:38.689Z,12.98
2019-04-23T01:45:27.285Z,13.00
2019-04-23T01:46:37.304Z,13.00
2019-04-23T01:47:35.503Z,12.85
2019-04-23T01:48:34.259Z,12.87
2019-04-23T01:49:36.997Z,12.78
2019-04-23T01:50:50.133Z,12.78
2019-04-23T01:51:33.876Z,12.78
2019-04-23T01:53:37.101Z,12.73
2019-04-23T01:54:30.830Z,12.78
2019-04-23T01:56:28.452Z,12.70
2019-04-23T01:57:30.811Z,12.76
2019-04-23T01:59:31.698Z,12.72
2019-04-23T02:01:32.825Z,12.67
2019-04-23T02:02:38.602Z,12.64
2019-04-23T02:03:49.973Z,12.79
2019-04-23T02:04:28.656Z,12.60
2019-04-23T02:06:31.482Z,12.54
2019-04-23T02:07:39.276Z,12.57
2019-04-23T02:08:26.166Z,12.67
2019-04-23T02:09:35.731Z,12.72
2019-04-23T02:10:42.633Z,12.79
2019-04-23T02:11:37.381Z,12.58
2019-04-23T02:12:33.390Z,12.58
2019-04-23T02:13:38.354Z,12.50
2019-04-23T02:14:29.059Z,12.57
2019-04-23T02:15:32.017Z,12.50
2019-04-23T02:16:33.865Z,12.55
2019-04-23T02:17:36.338Z,12.54
2019-04-23T02:18:30.435Z,12.55
2019-04-23T02:19:29.364Z,12.53
2019-04-23T02:21:35.229Z,12.55
2019-04-23T02:22:38.196Z,12.50
2019-04-23T02:23:32.775Z,12.47
2019-04-23T02:24:39.622Z,12.42
2019-04-23T02:26:30.959Z,12.32
2019-04-23T02:27:36.318Z,12.29
2019-04-23T02:28:34.093Z,12.35
2019-04-23T02:32:39.864Z,12.31
2019-04-23T02:33:44.538Z,12.42
2019-04-23T02:36:40.520Z,12.21
2019-04-23T02:38:45.775Z,12.25
2019-04-23T02:39:46.498Z,12.35
2019-04-23T02:40:47.125Z,12.22
2019-04-23T02:41:41.358Z,12.29
2019-04-23T02:43:00.871Z,12.31
2019-04-23T02:43:26.042Z,12.32
2019-04-23T02:44:31.841Z,12.15
2019-04-23T02:45:43.966Z,12.24
2019-04-23T02:46:33.536Z,12.20
2019-04-23T02:48:44.367Z,12.15
2019-04-23T02:49:54.964Z,12.03
2019-04-23T02:51:35.148Z,12.02
2019-04-23T02:54:46.650Z,11.81
2019-04-23T02:56:49.228Z,11.91
2019-04-23T02:57:35.591Z,11.78
2019-04-23T02:58:43.989Z,11.90
2019-04-23T03:00:04.274Z,11.86
2019-04-23T03:00:40.017Z,11.97
2019-04-23T03:03:42.328Z,11.72
2019-04-23T03:06:38.999Z,11.83
2019-04-23T03:07:45.922Z,11.72
2019-04-23T03:08:39.423Z,11.62
2019-04-23T03:12:37.744Z,11.62
2019-04-23T03:14:43.736Z,11.50
2019-04-23T03:15:52.640Z,11.50
2019-04-23T03:17:36.472Z,11.63
2019-04-23T03:19:37.989Z,11.60
2019-04-23T03:20:59.504Z,11.60
2019-04-23T03:21:44.612Z,11.54
2019-04-23T03:22:49.502Z,11.57
2019-04-23T03:23:47.224Z,11.57
2019-04-23T03:24:44.108Z,11.55
2019-04-23T03:25:31.315Z,11.44
2019-04-23T03:36:18.302Z,11.43
2019-04-23T03:37:00.670Z,11.44
2019-04-23T03:37:40.764Z,11.41
2019-04-23T03:39:55.091Z,11.41
2019-04-23T03:40:27.655Z,11.45
2019-04-23T03:42:42.639Z,11.41
2019-04-23T03:44:45.007Z,11.30
2019-04-23T03:47:32.024Z,11.35
2019-04-23T03:50:35.400Z,11.25
2019-04-23T03:51:36.574Z,11.27
2019-04-23T03:53:43.153Z,11.26
2019-04-23T03:56:45.230Z,11.30
2019-04-23T03:58:41.400Z,11.32
2019-04-23T04:00:37.258Z,11.29
2019-04-23T04:02:48.498Z,11.36
2019-04-23T04:04:10.749Z,11.27
2019-04-23T04:05:42.523Z,11.29
2019-04-23T04:09:47.966Z,11.30
2019-04-23T04:10:54.974Z,11.25
2019-04-23T04:11:25.779Z,11.15
2019-04-23T04:12:34.889Z,11.18
2019-04-23T04:14:38.394Z,11.15
2019-04-23T04:15:51.017Z,11.19
2019-04-23T04:16:36.512Z,11.15
2019-04-23T04:18:41.086Z,11.08
2019-04-23T04:19:47.877Z,11.14
2019-04-23T04:21:33.798Z,11.14
2019-04-23T04:22:54.471Z,11.11
2019-04-23T04:23:43.474Z,11.11
2019-04-23T04:24:36.946Z,11.18
2019-04-23T04:26:44.355Z,11.15
2019-04-23T04:28:38.426Z,11.22
2019-04-23T04:30:38.448Z,11.23
2019-04-23T04:31:42.484Z,11.14
2019-04-23T04:32:36.625Z,11.11
2019-04-23T04:35:27.352Z,11.07
2019-04-23T04:36:45.850Z,11.07
2019-04-23T04:37:56.367Z,11.00
2019-04-23T04:38:40.573Z,11.14
2019-04-23T04:39:35.190Z,11.10
2019-04-23T04:41:31.190Z,11.05
2019-04-23T04:42:59.181Z,11.05
2019-04-23T04:45:45.134Z,10.97
2019-04-23T04:48:40.284Z,11.10
2019-04-23T04:49:42.584Z,11.05
2019-04-23T04:50:31.358Z,11.12
2019-04-23T04:51:37.661Z,11.15
2019-04-23T04:52:41.183Z,11.17
2019-04-23T04:54:23.062Z,11.32
2019-04-23T04:55:36.272Z,11.26
2019-04-23T04:57:36.507Z,11.36
2019-04-23T04:58:43.404Z,11.43
2019-04-23T04:59:40.033Z,11.44
2019-04-23T05:00:44.036Z,11.57
2019-04-23T05:01:30.216Z,11.51
2019-04-23T05:03:26.957Z,11.45
2019-04-23T05:04:37.901Z,11.44
2019-04-23T05:06:39.399Z,11.54
2019-04-23T05:07:34.065Z,11.59
2019-04-23T05:09:43.823Z,11.70
2019-04-23T05:10:43.256Z,11.78
2019-04-23T05:11:38.651Z,11.69
2019-04-23T05:12:34.925Z,11.84
2019-04-23T05:13:41.172Z,11.97
2019-04-23T05:14:35.390Z,12.00
2019-04-23T05:15:35.518Z,12.03
2019-04-23T05:16:37.070Z,12.07
2019-04-23T05:17:32.501Z,12.25
2019-04-23T05:18:34.660Z,12.25
2019-04-23T05:22:33.703Z,12.62
2019-04-23T05:23:28.122Z,12.76
2019-04-23T05:24:31.719Z,12.93
2019-04-23T05:25:25.483Z,12.91
2019-04-23T05:26:29.252Z,13.13
2019-04-23T05:27:28.346Z,13.41
2019-04-23T05:28:29.955Z,13.56
2019-04-23T05:29:19.984Z,13.85
2019-04-23T05:30:36.368Z,14.10
2019-04-23T05:31:23.167Z,13.96
2019-04-23T05:32:26.465Z,14.17
2019-04-23T05:34:24.276Z,14.26
2019-04-23T05:37:33.489Z,14.35
2019-04-23T05:38:35.925Z,14.72
2019-04-23T05:39:32.003Z,14.86
2019-04-23T05:40:37.121Z,14.85
2019-04-23T05:42:26.079Z,14.92
2019-04-23T05:43:27.912Z,14.89
2019-04-23T05:44:33.799Z,14.88
2019-04-23T05:45:30.081Z,15.06
2019-04-23T05:47:27.362Z,14.97
2019-04-23T05:48:23.439Z,14.91
2019-04-23T05:49:24.785Z,14.92
2019-04-23T05:50:39.233Z,14.91
2019-04-23T05:51:31.138Z,15.04
2019-04-23T05:52:31.275Z,14.73
2019-04-23T05:53:27.014Z,14.58
2019-04-23T05:54:26.584Z,14.77
2019-04-23T05:55:32.343Z,14.81
2019-04-23T05:56:30.811Z,14.65
2019-04-23T05:57:20.059Z,14.85
2019-04-23T05:58:30.078Z,14.89
2019-04-23T05:59:24.710Z,15.10
2019-04-23T06:00:34.427Z,15.21
2019-04-23T06:02:26.585Z,14.89
2019-04-23T06:03:42.068Z,14.94
2019-04-23T06:05:25.022Z,14.69
2019-04-23T06:06:52.417Z,14.77
2019-04-23T06:07:42.261Z,14.86
2019-04-23T06:08:38.474Z,15.15
2019-04-23T06:09:26.460Z,15.33
2019-04-23T06:10:27.218Z,15.29
2019-04-23T06:11:37.072Z,15.33
2019-04-23T06:12:26.984Z,15.52
2019-04-23T06:13:26.040Z,15.61
2019-04-23T06:14:28.460Z,15.65
2019-04-23T06:15:29.022Z,15.77
2019-04-23T06:16:32.766Z,15.92
2019-04-23T06:17:43.083Z,16.49
2019-04-23T06:18:30.503Z,16.78
2019-04-23T06:19:21.309Z,16.65
2019-04-23T06:20:28.207Z,16.43
2019-04-23T06:21:34.241Z,16.32
2019-04-23T06:22:28.977Z,16.72
2019-04-23T06:23:36.554Z,16.74
2019-04-23T06:24:28.415Z,16.76
2019-04-23T06:25:39.999Z,16.64
2019-04-23T06:27:27.430Z,16.81
2019-04-23T06:28:27.752Z,16.74
2019-04-23T06:29:37.635Z,16.72
2019-04-23T06:30:35.294Z,16.57
2019-04-23T06:31:31.205Z,16.51
2019-04-23T06:32:25.856Z,16.74
2019-04-23T06:33:25.962Z,16.64
2019-04-23T06:35:47.079Z,16.81
2019-04-23T06:36:25.661Z,16.50
2019-04-23T06:37:25.805Z,16.08
2019-04-23T06:39:28.548Z,16.47
2019-04-23T06:40:27.715Z,16.39
2019-04-23T06:41:34.513Z,16.31
2019-04-23T06:42:30.762Z,16.15
2019-04-23T06:43:24.328Z,16.35
2019-04-23T06:44:25.617Z,16.41
2019-04-23T06:45:26.051Z,16.50
2019-04-23T06:46:33.666Z,16.94
2019-04-23T06:47:36.107Z,16.78
2019-04-23T06:48:32.094Z,16.72
2019-04-23T06:49:30.492Z,16.81
2019-04-23T06:50:27.174Z,16.87
2019-04-23T06:51:28.226Z,17.05
2019-04-23T06:53:21.470Z,17.02
2019-04-23T06:54:25.697Z,17.19
2019-04-23T06:55:33.809Z,16.96
2019-04-23T06:56:26.916Z,16.99
2019-04-23T06:57:22.326Z,16.87
2019-04-23T06:58:32.385Z,16.69
2019-04-23T06:59:29.342Z,16.47
2019-04-23T07:00:27.885Z,16.26
2019-04-23T07:01:30.196Z,16.26
2019-04-23T07:02:30.608Z,16.54
2019-04-23T07:03:35.899Z,16.64
2019-04-23T07:04:29.021Z,16.87
2019-04-23T07:05:27.627Z,17.27
2019-04-23T07:07:44.959Z,17.36
2019-04-23T07:08:39.918Z,17.42
2019-04-23T07:09:22.671Z,17.45
2019-04-23T07:10:28.346Z,18.04
2019-04-23T07:11:28.656Z,18.01
2019-04-23T07:12:35.121Z,18.00
2019-04-23T07:13:34.600Z,17.98
2019-04-23T07:14:30.803Z,17.87
2019-04-23T07:15:38.045Z,17.80
2019-04-23T07:16:21.561Z,17.92
2019-04-23T07:17:21.339Z,17.90
2019-04-23T07:18:27.708Z,17.67
2019-04-23T07:20:28.675Z,17.19
2019-04-23T07:21:22.005Z,17.02
2019-04-23T07:22:21.692Z,17.02
2019-04-23T07:23:29.977Z,16.68
2019-04-23T07:24:21.523Z,16.83
2019-04-23T07:25:29.551Z,16.74
2019-04-23T07:27:37.851Z,16.96
2019-04-23T07:28:29.002Z,17.06
2019-04-23T07:29:27.180Z,17.14
2019-04-23T07:30:38.352Z,17.01
2019-04-23T07:31:44.551Z,17.24
2019-04-23T07:32:29.115Z,17.30
2019-04-23T07:33:27.905Z,17.46
2019-04-23T07:34:25.811Z,17.34
2019-04-23T07:35:24.496Z,17.49
2019-04-23T07:36:32.411Z,17.63
2019-04-23T07:37:22.275Z,17.51
2019-04-23T07:38:32.764Z,17.38
2019-04-23T07:41:32.231Z,18.01
2019-04-23T07:43:24.981Z,18.31
2019-04-23T07:44:35.731Z,18.53
2019-04-23T07:47:40.116Z,18.28
2019-04-23T07:48:34.193Z,18.01
2019-04-23T07:49:23.433Z,18.01
2019-04-23T07:50:38.183Z,18.18
2019-04-23T07:51:27.718Z,18.18
2019-04-23T07:52:41.103Z,18.29
2019-04-23T07:53:22.958Z,18.10
2019-04-23T07:56:24.104Z,18.05
2019-04-23T07:58:23.447Z,18.31
2019-04-23T07:59:25.299Z,18.13
2019-04-23T08:00:34.458Z,17.94
2019-04-23T08:01:18.344Z,18.43
2019-04-23T08:02:28.900Z,18.52
2019-04-23T08:03:21.055Z,18.74
2019-04-23T08:04:31.744Z,18.38
2019-04-23T08:05:32.007Z,18.49
2019-04-23T08:06:21.760Z,18.53
2019-04-23T08:07:28.271Z,18.71
2019-04-23T08:08:28.642Z,18.58
2019-04-23T08:09:25.567Z,18.53
2019-04-23T08:10:31.765Z,18.81
2019-04-23T08:11:34.344Z,18.65
2019-04-23T08:12:32.019Z,18.45
2019-04-23T08:13:37.936Z,18.68
2019-04-23T08:14:26.421Z,18.71
2019-04-23T08:15:30.954Z,18.58
2019-04-23T08:17:26.205Z,19.09
2019-04-23T08:18:29.284Z,19.15
2019-04-23T08:19:35.234Z,18.80
2019-04-23T08:20:23.037Z,18.53
2019-04-23T08:22:28.792Z,18.53
2019-04-23T08:23:25.643Z,18.34
2019-04-23T08:24:16.788Z,18.34
2019-04-23T08:25:27.254Z,18.65
2019-04-23T08:26:38.029Z,18.81
2019-04-23T08:27:22.673Z,18.68
2019-04-23T08:28:38.192Z,18.66
2019-04-23T08:29:19.947Z,18.89
2019-04-23T08:30:17.369Z,18.53
2019-04-23T08:31:32.075Z,18.45
2019-04-23T08:32:19.035Z,18.75
2019-04-23T08:33:24.854Z,19.12
2019-04-23T08:34:32.501Z,18.50
2019-04-23T08:35:19.962Z,18.56
2019-04-23T08:36:29.443Z,18.83
2019-04-23T08:37:36.450Z,18.88
2019-04-23T08:39:28.672Z,19.11
2019-04-23T08:41:26.961Z,18.83
2019-04-23T08:42:39.632Z,18.96
2019-04-23T08:44:27.394Z,19.16
2019-04-23T08:46:33.044Z,19.04
2019-04-23T08:47:23.250Z,19.12
2019-04-23T08:49:29.573Z,19.56
2019-04-23T08:50:27.545Z,19.31
2019-04-23T08:51:38.899Z,19.79
2019-04-23T08:52:37.005Z,19.73
2019-04-23T08:53:37.572Z,19.49
2019-04-23T08:54:37.001Z,19.49
2019-04-23T08:56:38.650Z,20.10
2019-04-23T08:57:22.691Z,20.07
2019-04-23T08:58:38.060Z,19.81
2019-04-23T08:59:33.069Z,19.89
2019-04-23T09:00:24.765Z,19.92
2019-04-23T09:01:27.553Z,19.88
2019-04-23T09:02:35.964Z,20.18
2019-04-23T09:04:23.637Z,20.14
2019-04-23T09:05:34.247Z,20.66
2019-04-23T09:06:21.687Z,20.07
2019-04-23T09:07:28.071Z,20.40
2019-04-23T09:08:29.506Z,20.11
2019-04-23T09:09:27.486Z,20.37
2019-04-23T09:10:28.233Z,20.39
2019-04-23T09:11:38.560Z,20.51
2019-04-23T09:12:32.092Z,20.70
2019-04-23T09:14:20.556Z,21.55
2019-04-23T09:15:31.595Z,21.00
2019-04-23T09:16:24.624Z,21.24
2019-04-23T09:17:28.507Z,21.46
2019-04-23T09:18:26.195Z,22.29
2019-04-23T09:19:41.322Z,21.92
2019-04-23T09:20:34.284Z,21.96
2019-04-23T09:21:21.368Z,21.69
2019-04-23T09:23:28.354Z,21.89
2019-04-23T09:24:29.534Z,22.08
2019-04-23T09:25:29.976Z,22.59
2019-04-23T09:26:22.287Z,22.59
2019-04-23T09:27:31.601Z,22.50
2019-04-23T09:28:34.527Z,22.60
2019-04-23T09:29:30.642Z,22.59
2019-04-23T09:31:56.478Z,22.13
2019-04-23T09:33:32.513Z,22.41
2019-04-23T09:34:31.284Z,23.02
2019-04-23T09:35:27.837Z,23.09
2019-04-23T09:36:27.478Z,22.91
2019-04-23T09:37:40.545Z,23.44
2019-04-23T09:38:39.651Z,22.76
2019-04-23T09:40:32.149Z,23.41
2019-04-23T09:42:32.281Z,22.87
2019-04-23T09:44:50.784Z,22.66
2019-04-23T09:45:35.802Z,22.60
2019-04-23T09:46:24.344Z,23.13
2019-04-23T09:48:17.755Z,23.78
2019-04-23T09:49:29.128Z,23.80
2019-04-23T09:51:27.335Z,24.68
2019-04-23T09:53:27.912Z,24.43
2019-04-23T09:54:37.822Z,24.53
2019-04-23T09:55:32.735Z,23.98
2019-04-23T09:56:22.383Z,24.26
2019-04-23T09:57:17.105Z,22.72
2019-04-23T09:58:18.140Z,22.99
2019-04-23T10:00:31.424Z,23.34
2019-04-23T10:01:27.844Z,23.48
2019-04-23T10:02:20.236Z,23.56
2019-04-23T10:03:10.675Z,23.34
2019-04-23T10:04:07.431Z,22.83
2019-04-23T10:05:11.090Z,22.76
2019-04-23T10:06:04.287Z,22.69
2019-04-23T10:07:11.268Z,21.98
2019-04-23T10:08:06.635Z,22.18
2019-04-23T10:09:01.437Z,21.79
2019-04-23T10:09:57.379Z,21.67
2019-04-23T10:10:57.481Z,21.76
2019-04-23T10:11:56.404Z,21.57
2019-04-23T10:12:57.992Z,21.39
2019-04-23T10:13:56.672Z,21.45
2019-04-23T10:15:05.704Z,21.39
2019-04-23T10:15:58.053Z,21.35
2019-04-23T10:16:57.937Z,21.20
2019-04-23T10:17:56.454Z,21.33
2019-04-23T10:18:57.442Z,21.14
2019-04-23T10:19:56.338Z,20.81
2019-04-23T10:20:56.562Z,21.21
2019-04-23T10:21:57.505Z,20.96
2019-04-23T10:22:56.732Z,20.92
2019-04-23T10:23:57.121Z,20.31
2019-04-23T10:24:57.137Z,20.18
2019-04-23T10:25:56.419Z,20.52
2019-04-23T10:26:57.727Z,20.43
2019-04-23T10:28:01.188Z,20.21
2019-04-23T10:28:56.623Z,19.79
2019-04-23T10:29:56.265Z,20.36
2019-04-23T10:30:56.584Z,20.19
2019-04-23T10:31:57.598Z,20.48
2019-04-23T10:32:57.746Z,20.55
2019-04-23T10:33:57.793Z,20.18
2019-04-23T10:35:06.699Z,20.43
2019-04-23T10:36:02.637Z,20.43
2019-04-23T10:36:57.539Z,20.37
2019-04-23T10:38:03.669Z,20.50
2019-04-23T10:39:04.936Z,20.29
2019-04-23T10:39:59.219Z,20.10
2019-04-23T10:40:56.289Z,20.04
2019-04-23T10:41:57.614Z,20.32
2019-04-23T10:42:57.695Z,20.50
2019-04-23T10:43:56.688Z,20.69
2019-04-23T10:45:10.831Z,20.51
2019-04-23T10:46:15.436Z,20.51
2019-04-23T10:47:27.138Z,20.36
2019-04-23T10:48:32.735Z,20.80
2019-04-23T10:49:50.861Z,20.70
2019-04-23T10:50:27.352Z,20.90
2019-04-23T10:51:30.528Z,20.66
2019-04-23T10:52:53.612Z,20.60
2019-04-23T10:53:39.935Z,20.51
2019-04-23T10:54:34.286Z,20.81
2019-04-23T10:55:25.949Z,20.88
2019-04-23T10:56:27.228Z,21.00
2019-04-23T10:57:22.607Z,20.90
2019-04-23T10:58:22.876Z,20.88
2019-04-23T10:59:34.194Z,21.05
2019-04-23T11:00:23.845Z,21.27
2019-04-23T11:01:37.233Z,21.42
2019-04-23T11:03:45.284Z,21.42
2019-04-23T11:04:44.760Z,21.58
2019-04-23T11:05:29.195Z,21.24
2019-04-23T11:06:32.525Z,21.30
2019-04-23T11:07:30.792Z,21.80
2019-04-23T11:08:23.953Z,21.75
2019-04-23T11:09:44.447Z,21.82
2019-04-23T11:10:22.046Z,21.76
2019-04-23T11:11:27.609Z,21.80
2019-04-23T11:12:37.095Z,21.96
2019-04-23T11:13:40.914Z,22.51
2019-04-23T11:14:25.368Z,21.92
2019-04-23T11:15:38.391Z,22.63
2019-04-23T11:16:46.028Z,22.36
2019-04-23T11:17:35.514Z,22.32
2019-04-23T11:18:34.407Z,22.23
2019-04-23T11:19:34.637Z,22.51
2019-04-23T11:20:30.252Z,22.53
2019-04-23T11:21:28.241Z,22.76
2019-04-23T11:22:42.681Z,23.17
2019-04-23T11:23:22.420Z,22.91
2019-04-23T11:24:41.969Z,23.21
2019-04-23T11:26:31.879Z,23.06
2019-04-23T11:27:32.675Z,22.76
2019-04-23T11:28:25.732Z,22.15
2019-04-23T11:29:34.367Z,22.78
2019-04-23T11:30:36.474Z,22.65
2019-04-23T11:31:33.330Z,22.60
2019-04-23T11:33:19.902Z,22.65
2019-04-23T11:35:31.181Z,22.28
2019-04-23T11:37:39.250Z,22.43
2019-04-23T11:39:32.554Z,21.93
2019-04-23T11:41:45.673Z,22.10
2019-04-23T11:42:33.164Z,22.08
2019-04-23T11:44:28.832Z,22.11
2019-04-23T11:44:56.470Z,22.15
2019-04-23T11:45:36.754Z,22.28
2019-04-23T11:46:41.209Z,22.17
2019-04-23T11:48:02.381Z,22.30
2019-04-23T11:50:39.674Z,22.53
2019-04-23T11:53:27.811Z,22.50
2019-04-23T11:54:24.152Z,22.59
2019-04-23T11:56:51.558Z,22.80
2019-04-23T11:59:31.299Z,22.83
2019-04-23T12:00:33.700Z,22.83
2019-04-23T12:01:42.205Z,22.76
2019-04-23T12:02:26.840Z,22.94
2019-04-23T12:03:17.793Z,22.66
2019-04-23T12:04:28.786Z,22.68
2019-04-23T12:05:41.318Z,22.75
2019-04-23T12:06:23.615Z,22.44
2019-04-23T12:07:22.918Z,22.32
2019-04-23T12:08:36.744Z,22.50
2019-04-23T12:09:34.961Z,22.76
2019-04-23T12:10:29.108Z,22.83
2019-04-23T12:11:52.336Z,22.80
2019-04-23T12:12:28.027Z,22.90
2019-04-23T12:13:30.167Z,22.99
2019-04-23T12:14:35.142Z,22.75
2019-04-23T12:15:37.931Z,22.32
2019-04-23T12:16:34.365Z,22.50
2019-04-23T12:18:38.736Z,22.98
2019-04-23T12:20:28.649Z,22.63
2019-04-23T12:21:29.912Z,22.72
2019-04-23T12:23:31.701Z,23.06
2019-04-23T12:24:42.055Z,23.17
2019-04-23T12:26:35.542Z,23.10
2019-04-23T12:28:30.150Z,23.50
2019-04-23T12:29:31.920Z,23.32
2019-04-23T12:30:42.091Z,23.05
2019-04-23T12:31:26.443Z,22.75
2019-04-23T12:33:31.729Z,22.78
2019-04-23T12:34:28.418Z,22.83
2019-04-23T12:36:30.552Z,22.28
2019-04-23T12:37:33.491Z,22.06
2019-04-23T12:38:21.892Z,22.41
2019-04-23T12:39:27.082Z,22.54
2019-04-23T12:41:21.150Z,22.41
2019-04-23T12:42:43.568Z,22.36
2019-04-23T12:43:19.025Z,22.29
2019-04-23T12:44:25.464Z,22.44
2019-04-23T12:46:26.440Z,22.60
2019-04-23T12:47:37.701Z,22.51
2019-04-23T12:49:49.039Z,22.26
2019-04-23T12:51:38.500Z,22.23
2019-04-23T12:52:25.293Z,22.07
2019-04-23T12:53:36.195Z,22.02
2019-04-23T12:54:35.641Z,22.13
2019-04-23T12:56:34.464Z,22.36
2019-04-23T12:57:28.735Z,22.39
2019-04-23T12:58:26.258Z,22.36
2019-04-23T12:59:23.242Z,22.17
2019-04-23T13:00:29.039Z,22.50
2019-04-23T13:01:25.689Z,22.63
2019-04-23T13:02:33.107Z,22.51
2019-04-23T13:03:25.419Z,22.69
2019-04-23T13:04:26.159Z,22.36
2019-04-23T13:05:31.743Z,22.45
2019-04-23T13:06:23.657Z,22.59
2019-04-23T13:07:36.792Z,22.78
2019-04-23T13:09:35.036Z,22.39
2019-04-23T13:10:36.712Z,22.45
2019-04-23T13:11:30.085Z,22.39
2019-04-23T13:12:38.190Z,22.28
2019-04-23T13:13:35.191Z,22.62
2019-04-23T13:14:25.215Z,22.45
2019-04-23T13:15:22.751Z,22.62
2019-04-23T13:16:33.016Z,22.55
2019-04-23T13:17:29.704Z,22.51
2019-04-23T13:18:23.600Z,22.50
2019-04-23T13:19:37.383Z,22.48
2019-04-23T13:20:23.551Z,22.78
2019-04-23T13:21:45.006Z,22.48
2019-04-23T13:22:31.844Z,22.43
2019-04-23T13:23:22.156Z,22.62
2019-04-23T13:24:27.513Z,22.81
2019-04-23T13:25:33.263Z,22.55
2019-04-23T13:26:08.986Z,22.47
2019-04-23T13:27:29.035Z,22.62
2019-04-23T13:28:24.545Z,22.72
2019-04-23T13:29:34.450Z,22.53
2019-04-23T13:30:32.569Z,22.44
2019-04-23T13:31:18.108Z,22.26
2019-04-23T13:32:50.277Z,22.26
2019-04-23T13:34:23.296Z,22.23
2019-04-23T13:35:43.607Z,22.17
2019-04-23T13:36:23.321Z,22.29
2019-04-23T13:37:33.645Z,22.53
2019-04-23T13:39:24.469Z,22.41
2019-04-23T13:40:37.395Z,22.29
2019-04-23T13:41:28.954Z,22.35
2019-04-23T13:42:33.705Z,22.33
2019-04-23T13:43:30.190Z,22.32
2019-04-23T13:44:29.326Z,22.43
2019-04-23T13:45:47.482Z,22.30
2019-04-23T13:46:17.829Z,22.39
2019-04-23T13:47:43.430Z,22.28
2019-04-23T13:48:16.696Z,22.28
2019-04-23T13:49:26.092Z,22.20
2019-04-23T13:50:37.502Z,22.32
2019-04-23T13:52:49.438Z,22.28
2019-04-23T13:53:38.403Z,22.30
2019-04-23T13:54:42.042Z,22.26
2019-04-23T13:55:16.550Z,22.35
2019-04-23T13:56:25.242Z,22.28
2019-04-23T13:58:23.303Z,22.02
2019-04-23T13:59:30.538Z,22.06
2019-04-23T14:00:42.260Z,21.98
2019-04-23T14:01:30.910Z,22.39
2019-04-23T14:02:34.448Z,22.47
2019-04-23T14:03:30.743Z,22.20
2019-04-23T14:04:32.445Z,22.14
2019-04-23T14:05:35.799Z,22.13
2019-04-23T14:06:43.440Z,22.20
2019-04-23T14:07:30.334Z,22.14
2019-04-23T14:08:33.530Z,22.22
2019-04-23T14:09:34.352Z,22.11
2019-04-23T14:10:29.908Z,22.17
2019-04-23T14:12:22.603Z,22.25
2019-04-23T14:13:37.079Z,22.18
2019-04-23T14:14:34.528Z,22.07
2019-04-23T14:15:36.302Z,22.14
2019-04-23T14:16:29.695Z,22.07
2019-04-23T14:17:47.062Z,22.11
2019-04-23T14:19:16.269Z,22.02
2019-04-23T14:20:21.827Z,21.99
2019-04-23T14:22:43.502Z,21.83
2019-04-23T14:23:39.642Z,21.89
2019-04-23T14:24:50.713Z,21.99
2019-04-23T14:25:18.751Z,22.08
2019-04-23T14:28:30.791Z,22.66
2019-04-23T14:29:21.578Z,22.38
2019-04-23T14:30:29.961Z,22.28
2019-04-23T14:31:17.474Z,22.28
2019-04-23T14:32:23.235Z,22.23
2019-04-23T14:33:26.698Z,22.17
2019-04-23T14:34:17.817Z,22.30
2019-04-23T14:35:25.736Z,22.33
2019-04-23T14:36:26.997Z,22.47
2019-04-23T14:40:26.443Z,22.39
2019-04-23T14:41:23.632Z,22.43
2019-04-23T14:42:24.732Z,22.28
2019-04-23T14:43:25.700Z,22.32
2019-04-23T14:44:20.191Z,22.30
2019-04-23T14:45:42.638Z,22.10
2019-04-23T14:47:40.231Z,22.18
2019-04-23T14:48:39.154Z,22.07
2019-04-23T14:49:19.260Z,22.26
2019-04-23T14:50:31.991Z,22.33
2019-04-23T14:52:45.915Z,22.32
2019-04-23T14:54:35.993Z,22.25
2019-04-23T14:56:23.950Z,22.25
2019-04-23T14:57:35.104Z,22.30
2019-04-23T14:58:36.059Z,22.39
2019-04-23T14:59:32.198Z,22.28
2019-04-23T15:00:31.499Z,22.39
2019-04-23T15:01:27.204Z,22.35
2019-04-23T15:02:28.663Z,22.32
2019-04-23T15:03:30.518Z,22.32
2019-04-23T15:04:24.281Z,22.15
2019-04-23T15:05:27.650Z,22.17
2019-04-23T15:06:29.518Z,22.14
2019-04-23T15:07:28.589Z,22.26
2019-04-23T15:08:25.193Z,22.23
2019-04-23T15:10:24.779Z,22.54
2019-04-23T15:11:29.490Z,22.54
2019-04-23T15:12:23.514Z,22.60
2019-04-23T15:13:23.211Z,22.62
2019-04-23T15:14:16.898Z,22.55
2019-04-23T15:15:25.253Z,22.57
2019-04-23T15:16:22.667Z,22.57
2019-04-23T15:17:19.993Z,22.47
2019-04-23T15:18:25.284Z,22.54
2019-04-23T15:19:32.857Z,22.39
2019-04-23T15:20:25.335Z,22.50
2019-04-23T15:22:20.101Z,22.43
2019-04-23T15:24:25.876Z,22.53
2019-04-23T15:28:12.151Z,22.45
2019-04-23T15:29:02.784Z,22.39
2019-04-23T15:30:17.444Z,22.48
2019-04-23T15:32:31.618Z,22.50
2019-04-23T15:33:31.740Z,22.36
2019-04-23T15:34:32.723Z,22.55
2019-04-23T15:36:32.127Z,22.38
2019-04-23T15:38:37.786Z,22.55
2019-04-23T15:39:26.983Z,22.29
2019-04-23T15:40:21.017Z,22.50
2019-04-23T15:41:23.222Z,22.38
2019-04-23T15:42:25.275Z,22.33
2019-04-23T15:43:23.433Z,22.30
2019-04-23T15:45:24.203Z,22.32
2019-04-23T15:46:26.297Z,22.28
2019-04-23T15:49:23.464Z,22.25
2019-04-23T15:50:23.540Z,22.23
2019-04-23T15:51:28.146Z,22.35
2019-04-23T15:52:18.804Z,22.18
2019-04-23T15:53:11.384Z,22.25
2019-04-23T15:54:42.826Z,22.04
2019-04-23T15:55:22.472Z,22.26
2019-04-23T15:56:26.903Z,22.06